Time;durP1;ratioP1;P1;durP2;ratioP2;P2;SDS_P1;SDS_P2;PMS_P1;PMS_P2;Temp;Humidity;BMP_temperature;BMP_pressure;BME280_temperature;BME280_humidity;BME280_pressure;Samples;Min_cycle;Max_cycle;Signal;HPM_P1;HPM_P2
2023/05/10 00:01:24;;;;;;;5.28;2.53;;;;;;;14.72;48.99;99314.38;4974597;28;20038;-77
2023/05/10 00:03:50;;;;;;;5.75;2.28;;;;;;;14.71;49.07;99304.84;4972896;28;20479;-77
2023/05/10 00:06:15;;;;;;;7.75;2.75;;;;;;;14.69;49.13;99304.13;4971912;28;20038;-77
2023/05/10 00:08:41;;;;;;;5.25;2.60;;;;;;;14.69;49.03;99301.50;4989168;28;20062;-78
2023/05/10 00:11:06;;;;;;;3.78;2.83;;;;;;;14.69;48.95;99304.13;4972902;28;20182;-77
2023/05/10 00:13:32;;;;;;;3.45;2.20;;;;;;;14.65;49.08;99304.38;4973202;28;20117;-77
2023/05/10 00:15:57;;;;;;;4.75;2.30;;;;;;;14.68;49.01;99302.50;4972678;28;20039;-77
2023/05/10 00:18:23;;;;;;;6.32;2.55;;;;;;;14.67;48.68;99311.31;4972847;28;20121;-77
2023/05/10 00:20:48;;;;;;;8.27;2.40;;;;;;;14.62;49.08;99294.13;4973798;28;20043;-77
2023/05/10 00:23:14;;;;;;;4.15;2.50;;;;;;;14.61;48.91;99302.16;4974036;28;20050;-77
2023/05/10 00:25:39;;;;;;;4.18;2.47;;;;;;;14.63;49.00;99300.25;4973957;28;20097;-77
2023/05/10 00:28:05;;;;;;;3.83;2.50;;;;;;;14.62;48.90;99296.75;4972541;28;20035;-77
2023/05/10 00:30:30;;;;;;;6.57;2.60;;;;;;;14.61;48.78;99295.13;4956841;28;20089;-77
2023/05/10 00:32:56;;;;;;;5.10;2.17;;;;;;;14.56;48.96;99288.53;4973746;28;20486;-77
2023/05/10 00:35:21;;;;;;;5.45;2.30;;;;;;;14.58;48.95;99292.72;4954763;28;20287;-76
2023/05/10 00:37:47;;;;;;;5.60;2.38;;;;;;;14.60;48.87;99297.88;4972599;28;20030;-76
2023/05/10 00:40:13;;;;;;;3.95;2.25;;;;;;;14.59;48.93;99293.53;4987510;28;20376;-76
2023/05/10 00:42:38;;;;;;;7.82;2.42;;;;;;;14.55;48.91;99286.88;4971552;28;20030;-76
2023/05/10 00:45:04;;;;;;;5.07;2.20;;;;;;;14.56;49.02;99285.91;4971705;28;20049;-76
2023/05/10 00:47:30;;;;;;;6.82;2.58;;;;;;;14.57;48.85;99295.47;4972331;28;20035;-75
2023/05/10 00:49:55;;;;;;;5.68;2.90;;;;;;;14.57;48.73;99298.09;4971322;28;20045;-75
2023/05/10 00:52:23;;;;;;;5.47;2.70;;;;;;;14.55;48.79;99295.59;4971251;28;20055;-76
2023/05/10 00:54:50;;;;;;;5.87;2.47;;;;;;;14.57;48.64;99287.59;4955521;28;20042;-76
2023/05/10 00:57:15;;;;;;;5.05;2.53;;;;;;;14.55;48.49;99289.50;4955156;28;20038;-76
2023/05/10 00:59:41;;;;;;;4.03;2.50;;;;;;;14.52;48.76;99277.47;4971788;28;20475;-77
2023/05/10 01:02:06;;;;;;;5.75;2.35;;;;;;;14.50;48.79;99276.78;4954937;28;20035;-74
2023/05/10 01:04:32;;;;;;;5.88;2.60;;;;;;;14.54;48.99;99283.41;4972586;28;20599;-75
2023/05/10 01:06:57;;;;;;;3.97;2.47;;;;;;;14.53;48.71;99281.78;4971046;28;20038;-76
2023/05/10 01:09:23;;;;;;;5.20;2.28;;;;;;;14.53;48.87;99283.53;4972269;28;20099;-75
2023/05/10 01:11:48;;;;;;;5.95;2.70;;;;;;;14.52;48.98;99289.78;4972262;28;20039;-76
2023/05/10 01:14:14;;;;;;;5.22;2.30;;;;;;;14.51;48.92;99286.28;4938966;28;20043;-76
2023/05/10 01:16:40;;;;;;;3.17;2.17;;;;;;;14.52;49.05;99279.28;4972438;28;20030;-76
2023/05/10 01:19:34;;;;;;;3.63;2.28;;;;;;;14.50;49.02;99287.28;4958860;28;20578;-76
2023/05/10 01:22:08;;;;;;;4.60;2.20;;;;;;;14.48;49.01;99271.66;4972703;28;20039;-76
2023/05/10 01:24:52;;;;;;;8.10;2.60;;;;;;;14.47;49.17;99275.22;4959554;28;20042;-76
2023/05/10 01:27:27;;;;;;;4.78;2.33;;;;;;;14.47;49.04;99282.28;4975254;28;20055;-77
2023/05/10 01:30:05;;;;;;;4.55;2.30;;;;;;;14.46;49.23;99273.53;4975974;28;20549;-77
2023/05/10 01:32:50;;;;;;;3.33;2.13;;;;;;;14.41;49.14;99264.41;4958267;28;20043;-77
2023/05/10 01:35:34;;;;;;;5.88;2.60;;;;;;;14.46;49.15;99267.47;4974908;28;20076;-77
2023/05/10 01:38:03;;;;;;;3.63;2.30;;;;;;;14.41;49.11;99267.03;4974669;28;20410;-77
2023/05/10 01:40:42;;;;;;;4.97;2.30;;;;;;;14.42;48.93;99268.69;4974549;28;20043;-77
2023/05/10 01:43:10;;;;;;;3.45;2.55;;;;;;;14.43;48.95;99260.66;4959181;28;20129;-77
2023/05/10 01:45:45;;;;;;;7.32;2.90;;;;;;;14.39;48.83;99261.91;4958584;28;20069;-77
2023/05/10 01:48:11;;;;;;;3.65;2.42;;;;;;;14.42;49.02;99263.44;4959012;28;20410;-76
2023/05/10 01:50:38;;;;;;;3.83;2.53;;;;;;;14.41;48.81;99264.41;4974667;28;20042;-76
2023/05/10 01:53:07;;;;;;;4.22;2.30;;;;;;;14.40;48.93;99260.09;4973791;28;20062;-77
2023/05/10 01:55:32;;;;;;;;;;;;;;;14.40;48.82;99258.31;4959086;28;20043;-76
2023/05/10 01:58:07;;;;;;;9.90;2.63;;;;;;;14.36;48.65;99274.44;4974074;28;19914;-77
2023/05/10 02:00:33;;;;;;;5.65;2.58;;;;;;;14.36;48.71;99277.06;4958822;28;20038;-76
2023/05/10 02:03:00;;;;;;;4.80;2.60;;;;;;;14.37;48.51;99284.00;4958140;28;20483;-76
2023/05/10 02:05:25;;;;;;;4.22;2.13;;;;;;;14.36;48.76;99274.44;4958052;28;20122;-76
2023/05/10 02:07:50;;;;;;;4.90;2.28;;;;;;;14.35;48.62;99281.50;4958352;28;20093;-77
2023/05/10 02:10:16;;;;;;;4.90;2.30;;;;;;;14.36;48.65;99279.69;4974684;28;20039;-76
2023/05/10 02:12:43;;;;;;;4.18;2.72;;;;;;;14.35;48.83;99270.16;4974767;28;20066;-74
2023/05/10 02:15:09;;;;;;;5.88;2.60;;;;;;;14.32;48.86;99268.63;4942458;28;20105;-74
2023/05/10 02:17:36;;;;;;;3.38;2.25;;;;;;;14.31;48.82;99261.72;4990738;28;20218;-74
2023/05/10 02:20:01;;;;;;;5.13;2.42;;;;;;;14.33;48.98;99267.66;4958717;28;20403;-74
2023/05/10 02:22:27;;;;;;;13.75;2.53;;;;;;;14.33;48.79;99262.41;4958404;28;20066;-74
2023/05/10 02:24:54;;;;;;;3.30;2.45;;;;;;;14.32;48.86;99263.38;4958652;28;20065;-74
2023/05/10 02:27:20;;;;;;;6.43;2.75;;;;;;;14.31;48.85;99261.72;4941908;28;20046;-74
2023/05/10 02:29:45;;;;;;;9.23;2.50;;;;;;;14.29;49.07;99263.63;4989927;28;20504;-74
2023/05/10 02:32:11;;;;;;;5.47;2.38;;;;;;;14.30;49.02;99260.03;4958950;28;20042;-74
2023/05/10 02:34:36;;;;;;;2.88;2.13;;;;;;;14.27;49.08;99260.31;4974560;28;20042;-75
2023/05/10 02:37:02;;;;;;;3.97;2.40;;;;;;;14.25;49.17;99255.19;4993284;28;20050;-74
2023/05/10 02:39:28;;;;;;;4.20;2.60;;;;;;;14.27;49.01;99255.03;4977663;28;20066;-74
2023/05/10 02:41:55;;;;;;;4.05;2.40;;;;;;;14.26;48.98;99259.47;4978139;28;20488;-74
2023/05/10 02:44:20;;;;;;;3.60;2.50;;;;;;;14.26;48.89;99256.84;4961779;28;20421;-74
2023/05/10 02:46:46;;;;;;;4.38;2.70;;;;;;;14.24;49.08;99255.31;4977513;28;20039;-76
2023/05/10 02:49:12;;;;;;;3.35;2.53;;;;;;;14.24;49.20;99263.19;4977567;28;20035;-76
2023/05/10 02:51:44;;;;;;;4.68;2.60;;;;;;;14.23;49.00;99274.63;4993606;28;20520;-75
2023/05/10 02:54:22;;;;;;;3.65;2.35;;;;;;;14.20;48.99;99262.59;4978054;28;20046;-75
2023/05/10 02:56:50;;;;;;;4.90;2.72;;;;;;;14.23;48.88;99266.75;4993799;28;20409;-76
2023/05/10 02:59:16;;;;;;;4.03;2.30;;;;;;;14.21;49.08;99266.88;4961379;28;20045;-75
2023/05/10 03:01:41;;;;;;;4.35;2.30;;;;;;;14.24;48.89;99273.69;4994759;28;20038;-76
2023/05/10 03:04:07;;;;;;;3.70;2.38;;;;;;;14.24;48.68;99271.88;4993391;28;20046;-75
2023/05/10 03:06:32;;;;;;;6.28;2.45;;;;;;;14.21;48.68;99266.88;4993286;28;20043;-75
2023/05/10 03:08:58;;;;;;;7.72;2.47;;;;;;;14.32;48.61;99273.03;4976997;28;20038;-75
2023/05/10 03:11:39;;;;;;;6.05;2.53;;;;;;;14.55;47.78;99276.34;4993406;28;20058;-76
2023/05/10 03:14:26;;;;;;;3.70;2.30;;;;;;;14.79;47.21;99273.50;4994792;28;20047;-75
2023/05/10 03:17:11;;;;;;;3.60;2.47;;;;;;;14.76;47.12;99273.75;4993395;28;20500;-75
2023/05/10 03:19:55;;;;;;;5.90;2.80;;;;;;;14.69;47.08;99265.56;4993320;28;20030;-75
2023/05/10 03:22:32;;;;;;;3.88;2.30;;;;;;;14.68;47.27;99271.78;4961713;28;20084;-75
2023/05/10 03:24:57;;;;;;;6.30;3.03;;;;;;;14.65;47.26;99264.97;4993651;28;20046;-75
2023/05/10 03:27:23;;;;;;;6.03;3.45;;;;;;;14.65;47.25;99272.03;4960303;28;20113;-75
2023/05/10 03:29:49;;;;;;;6.65;2.60;;;;;;;14.64;47.22;99265.97;4976815;28;20410;-75
2023/05/10 03:32:14;;;;;;;5.00;2.38;;;;;;;14.65;47.26;99264.97;4977028;28;20048;-75
2023/05/10 03:34:45;;;;;;;3.70;2.45;;;;;;;14.69;47.12;99277.84;4976317;28;20473;-76
2023/05/10 03:37:11;;;;;;;8.13;2.33;;;;;;;14.68;47.05;99276.22;4976418;28;20038;-75
2023/05/10 03:39:36;;;;;;;3.35;2.25;;;;;;;14.70;46.95;99282.16;4976679;28;20464;-75
2023/05/10 03:42:02;;;;;;;5.93;2.20;;;;;;;14.74;49.55;99273.06;4976476;28;20045;-74
2023/05/10 03:44:27;;;;;;;5.20;2.40;;;;;;;14.78;49.72;99279.69;4992538;28;20397;-73
2023/05/10 03:46:53;;;;;;;3.55;2.25;;;;;;;14.82;53.13;99281.13;4959793;28;20464;-73
2023/05/10 03:49:18;;;;;;;2.67;2.20;;;;;;;15.36;65.39;99279.09;4992566;28;20073;-73
2023/05/10 03:51:44;;;;;;;5.38;2.28;;;;;;;15.40;59.41;99285.75;4992514;28;20109;-70
2023/05/10 03:54:09;;;;;;;4.93;2.05;;;;;;;15.34;57.65;99286.31;4992361;28;20105;-72
2023/05/10 03:56:35;;;;;;;5.82;2.38;;;;;;;15.28;56.32;99286.84;4992833;28;20113;-72
2023/05/10 03:59:00;;;;;;;3.35;2.25;;;;;;;15.23;55.08;99289.88;4992743;28;20401;-75
2023/05/10 04:01:26;;;;;;;9.88;2.58;;;;;;;15.26;56.24;99291.38;4997626;28;20046;-76
2023/05/10 04:03:51;;;;;;;4.35;2.42;;;;;;;15.30;55.21;99290.97;4975957;28;20050;-72
2023/05/10 04:06:17;;;;;;;4.85;2.30;;;;;;;15.28;54.27;99287.66;4975580;28;20046;-73
2023/05/10 04:08:42;;;;;;;6.70;2.60;;;;;;;15.26;53.36;99294.88;4991696;28;20041;-73
2023/05/10 04:11:08;;;;;;;6.47;2.70;;;;;;;15.27;53.08;99299.13;4993558;28;20042;-73
2023/05/10 04:13:34;;;;;;;4.38;2.40;;;;;;;15.28;52.26;99298.19;4975345;28;20464;-73
2023/05/10 04:16:00;;;;;;;5.97;2.40;;;;;;;15.28;51.69;99297.38;4993284;28;20038;-72
2023/05/10 04:18:25;;;;;;;6.57;2.53;;;;;;;15.30;51.25;99303.31;4992105;28;20042;-73
2023/05/10 04:20:51;;;;;;;4.75;2.58;;;;;;;15.31;50.72;99303.19;4992134;28;20165;-73
2023/05/10 04:23:16;;;;;;;5.97;2.08;;;;;;;15.34;50.64;99297.66;4991960;28;20432;-73
2023/05/10 04:25:42;;;;;;;5.38;2.22;;;;;;;15.35;50.23;99296.69;4992412;28;20096;-72
2023/05/10 04:28:08;;;;;;;8.50;2.92;;;;;;;15.43;49.90;99297.81;4975623;28;20039;-72
2023/05/10 04:30:34;;;;;;;4.15;2.05;;;;;;;15.48;49.52;99298.22;4992015;28;20109;-77
2023/05/10 04:32:59;;;;;;;3.17;2.22;;;;;;;15.60;51.38;99294.53;4975852;28;20464;-74
2023/05/10 04:35:25;;;;;;;10.70;2.47;;;;;;;15.71;50.97;99304.09;4959619;28;20421;-73
2023/05/10 04:37:50;;;;;;;3.80;2.40;;;;;;;15.77;50.36;99300.97;4959394;28;20069;-74
2023/05/10 04:40:16;;;;;;;4.75;2.45;;;;;;;15.81;49.74;99301.50;4991450;28;20401;-72
2023/05/10 04:42:41;;;;;;;6.53;2.50;;;;;;;15.90;49.42;99311.22;4991691;28;20424;-72
2023/05/10 04:45:07;;;;;;;3.97;2.33;;;;;;;15.95;48.89;99302.91;4991310;28;20062;-71
2023/05/10 04:47:33;;;;;;;3.70;2.28;;;;;;;15.96;48.70;99300.16;4991675;28;20113;-73
2023/05/10 04:49:58;;;;;;;5.82;2.55;;;;;;;16.06;48.00;99306.22;4959291;28;20035;-73
2023/05/10 04:52:24;;;;;;;5.97;2.30;;;;;;;16.09;47.52;99291.97;4992378;28;20051;-72
2023/05/10 04:54:50;;;;;;;5.05;2.75;;;;;;;16.19;47.17;99305.13;4976072;28;20038;-74
2023/05/10 04:57:16;;;;;;;6.15;2.80;;;;;;;16.24;46.59;99297.63;4959588;28;20045;-73
2023/05/10 04:59:42;;;;;;;4.28;2.40;;;;;;;16.34;46.14;99303.75;4975525;28;20413;-73
2023/05/10 05:02:07;;;;;;;8.50;2.42;;;;;;;16.49;45.47;99301.50;4975710;28;20129;-72
2023/05/10 05:04:33;;;;;;;3.55;2.22;;;;;;;16.66;44.76;99297.31;4991794;28;20041;-71
2023/05/10 05:06:59;;;;;;;6.30;2.63;;;;;;;16.85;44.38;99299.06;4991106;28;20461;-71
2023/05/10 05:09:24;;;;;;;7.25;2.60;;;;;;;17.11;43.39;99296.66;4974134;28;20035;-72
2023/05/10 05:11:49;;;;;;;4.53;2.40;;;;;;;17.45;42.51;99296.06;4989552;28;20039;-72
2023/05/10 05:14:15;;;;;;;9.18;2.05;;;;;;;17.72;41.67;99297.81;4990494;28;20045;-72
2023/05/10 05:16:41;;;;;;;7.93;2.40;;;;;;;17.97;41.22;99284.91;4990603;28;20038;-72
2023/05/10 05:19:06;;;;;;;3.20;2.10;;;;;;;18.25;40.44;99298.03;4974382;28;20030;-71
2023/05/10 05:21:32;;;;;;;9.27;2.13;;;;;;;18.70;39.45;99280.34;4990499;28;20045;-71
2023/05/10 05:23:57;;;;;;;5.53;2.30;;;;;;;19.50;37.88;99290.66;4991235;28;20062;-72
2023/05/10 05:26:23;;;;;;;6.00;1.83;;;;;;;20.33;36.01;99289.78;4975500;28;20081;-73
2023/05/10 05:28:51;;;;;;;8.68;2.08;;;;;;;20.34;35.72;99301.22;4975189;28;20034;-70
2023/05/10 05:31:17;;;;;;;7.32;2.40;;;;;;;20.07;35.67;99287.31;4991561;28;20073;-71
2023/05/10 05:33:43;;;;;;;7.63;2.17;;;;;;;19.98;35.89;99302.34;4975229;28;20034;-72
2023/05/10 05:36:08;;;;;;;3.85;1.88;;;;;;;19.79;36.00;99311.44;4990914;28;20057;-72
2023/05/10 05:38:34;;;;;;;8.35;1.95;;;;;;;19.58;35.75;99306.56;4975312;28;20038;-71
2023/05/10 05:41:00;;;;;;;5.15;2.10;;;;;;;19.31;36.11;99307.63;4992525;28;20121;-71
2023/05/10 05:43:25;;;;;;;6.65;1.98;;;;;;;19.10;36.34;99302.72;4975321;28;20064;-72
2023/05/10 05:45:53;;;;;;;4.55;2.13;;;;;;;18.88;36.88;99310.25;4975179;28;20046;-71
2023/05/10 05:48:18;;;;;;;6.40;1.90;;;;;;;18.69;37.24;99310.41;4975246;28;20030;-71
2023/05/10 05:50:44;;;;;;;4.25;2.03;;;;;;;18.52;37.51;99315.59;4991215;28;20473;-71
2023/05/10 05:53:09;;;;;;;5.40;2.17;;;;;;;18.27;37.86;99311.91;4990872;28;20058;-72
2023/05/10 05:55:35;;;;;;;8.43;2.20;;;;;;;18.17;38.06;99324.38;4974264;28;20512;-71
2023/05/10 05:58:00;;;;;;;4.22;2.13;;;;;;;17.99;38.36;99319.91;4974531;28;20132;-71
2023/05/10 06:00:26;;;;;;;4.53;1.88;;;;;;;17.89;38.58;99319.16;4975044;28;20429;-72
2023/05/10 06:02:51;;;;;;;10.25;2.42;;;;;;;17.83;38.69;99328.47;4958840;28;20046;-70
2023/05/10 06:05:17;;;;;;;7.28;1.92;;;;;;;17.80;38.93;99331.41;4978386;28;20038;-72
2023/05/10 06:07:42;;;;;;;4.53;1.95;;;;;;;17.76;38.99;99332.72;4961849;28;20046;-71
2023/05/10 06:10:08;;;;;;;6.35;2.08;;;;;;;17.76;38.99;99326.56;4994291;28;20464;-71
2023/05/10 06:12:34;;;;;;;7.07;1.95;;;;;;;17.86;38.80;99340.56;4961887;28;20038;-72
2023/05/10 06:15:00;;;;;;;3.60;1.73;;;;;;;17.90;39.00;99331.41;4978303;28;20130;-71
2023/05/10 06:17:25;;;;;;;6.18;2.00;;;;;;;18.01;38.79;99336.47;4978181;28;20050;-71
2023/05/10 06:19:51;;;;;;;4.53;2.05;;;;;;;18.08;38.60;99336.69;4994285;28;20134;-71
2023/05/10 06:22:16;;;;;;;6.28;2.15;;;;;;;18.17;38.43;99342.84;4961891;28;20049;-73
2023/05/10 06:24:42;;;;;;;3.33;2.05;;;;;;;18.19;38.25;99336.44;4994319;28;20042;-72
2023/05/10 06:27:07;;;;;;;3.97;2.10;;;;;;;18.22;38.17;99345.91;4977766;28;20061;-71
2023/05/10 06:29:33;;;;;;;4.85;1.77;;;;;;;18.24;38.15;99336.81;4961314;28;20081;-70
2023/05/10 06:31:58;;;;;;;6.22;2.17;;;;;;;18.29;37.88;99333.72;4978061;28;20043;-70
2023/05/10 06:34:24;;;;;;;3.97;1.80;;;;;;;18.39;37.72;99336.28;4977864;28;20481;-71
2023/05/10 06:36:50;;;;;;;5.40;1.70;;;;;;;18.47;37.71;99332.88;4977857;28;20042;-73
2023/05/10 06:39:15;;;;;;;7.00;1.83;;;;;;;18.55;37.42;99330.28;4961586;28;20425;-71
2023/05/10 06:41:41;;;;;;;5.35;1.80;;;;;;;18.73;37.25;99339.03;4994002;28;20045;-71
2023/05/10 06:44:07;;;;;;;6.57;1.75;;;;;;;18.87;36.86;99344.78;4977792;28;20500;-72
2023/05/10 06:46:32;;;;;;;3.22;1.70;;;;;;;18.90;36.85;99340.00;4961572;28;20039;-72
2023/05/10 06:48:58;;;;;;;3.03;1.45;;;;;;;18.92;36.44;99353.06;4977037;28;20077;-71
2023/05/10 06:51:23;;;;;;;3.70;1.40;;;;;;;18.96;36.32;99349.97;4992639;28;20046;-71
2023/05/10 06:53:49;;;;;;;4.13;1.33;;;;;;;18.92;36.12;99345.13;4976582;28;20137;-72
2023/05/10 06:56:14;;;;;;;6.28;1.75;;;;;;;18.92;35.96;99350.44;4993591;28;20045;-73
2023/05/10 06:58:40;;;;;;;5.57;1.73;;;;;;;18.95;36.09;99348.28;4977004;28;20049;-71
2023/05/10 07:01:05;;;;;;;6.75;1.40;;;;;;;19.05;35.83;99336.78;4993564;28;20046;-72
2023/05/10 07:03:31;;;;;;;5.10;1.58;;;;;;;19.23;35.54;99328.75;4977325;28;20070;-71
2023/05/10 07:06:03;;;;;;;7.07;1.50;;;;;;;19.32;35.57;99328.66;4977430;28;20045;-71
2023/05/10 07:08:33;;;;;;;12.05;1.55;;;;;;;19.52;35.20;99333.69;4977523;28;20174;-70
2023/05/10 07:11:07;;;;;;;6.53;1.85;;;;;;;19.67;35.34;99342.69;4992862;28;20072;-71
2023/05/10 07:13:33;;;;;;;2.60;1.27;;;;;;;19.68;35.00;99339.00;4977292;28;20128;-71
2023/05/10 07:15:58;;;;;;;4.70;1.60;;;;;;;19.75;34.74;99341.03;4976917;28;20034;-72
2023/05/10 07:18:25;;;;;;;5.85;1.40;;;;;;;19.84;34.60;99345.38;4977219;28;20128;-72
2023/05/10 07:20:50;;;;;;;3.20;1.50;;;;;;;20.09;33.89;99340.97;4960938;28;20149;-71
2023/05/10 07:23:17;;;;;;;4.65;1.40;;;;;;;20.37;33.07;99338.00;4977074;28;20405;-72
2023/05/10 07:25:47;;;;;;;4.93;1.20;;;;;;;20.54;32.89;99337.00;4977307;28;20034;-71
2023/05/10 07:28:14;;;;;;;3.00;1.20;;;;;;;20.78;32.55;99341.50;4993050;28;20043;-73
2023/05/10 07:30:40;;;;;;;3.35;1.50;;;;;;;21.21;32.10;99335.09;4976259;28;20042;-72
2023/05/10 07:33:05;;;;;;;5.38;1.30;;;;;;;21.40;32.15;99339.16;4976253;28;20061;-72
2023/05/10 07:35:31;;;;;;;5.78;1.80;;;;;;;22.18;30.88;99332.91;4992998;28;20046;-71
2023/05/10 07:37:56;;;;;;;6.72;1.20;;;;;;;22.32;30.60;99333.19;4993108;28;20034;-71
2023/05/10 07:40:22;;;;;;;6.68;1.50;;;;;;;22.57;30.02;99336.47;4993037;28;20445;-71
2023/05/10 07:42:47;;;;;;;3.95;1.20;;;;;;;22.29;30.62;99339.66;4992675;28;20117;-70
2023/05/10 07:45:13;;;;;;;4.85;1.50;;;;;;;22.02;30.77;99339.19;4992114;28;20042;-70
2023/05/10 07:47:38;;;;;;;2.17;1.10;;;;;;;21.78;30.76;99342.00;4959816;28;20042;-71
2023/05/10 07:50:04;;;;;;;1.80;1.10;;;;;;;21.75;30.45;99343.16;4976226;28;20038;-71
2023/05/10 07:52:30;;;;;;;4.43;1.25;;;;;;;21.71;30.40;99341.84;4992475;28;20045;-74
2023/05/10 07:54:56;;;;;;;2.17;1.25;;;;;;;21.94;29.94;99347.22;4976619;28;20422;-71
2023/05/10 07:57:22;;;;;;;2.08;1.25;;;;;;;21.89;30.29;99338.13;4992582;28;20050;-71
2023/05/10 07:59:47;;;;;;;2.47;1.15;;;;;;;22.01;30.25;99348.19;4959726;28;20560;-71
2023/05/10 08:02:13;;;;;;;4.72;1.42;;;;;;;21.97;30.24;99341.53;4992786;28;20473;-72
2023/05/10 08:04:38;;;;;;;3.67;1.20;;;;;;;22.22;29.75;99355.50;4976127;28;20405;-71
2023/05/10 08:07:04;;;;;;;2.30;1.05;;;;;;;22.16;29.59;99342.09;4993413;28;20137;-71
2023/05/10 08:09:29;;;;;;;2.00;1.10;;;;;;;22.16;29.69;99348.22;4993445;28;20469;-71
2023/05/10 08:11:55;;;;;;;3.83;1.40;;;;;;;22.16;29.85;99350.88;4976224;28;20120;-71
2023/05/10 08:14:20;;;;;;;3.00;1.17;;;;;;;22.09;29.85;99360.59;4959737;28;20512;-71
2023/05/10 08:16:46;;;;;;;13.40;1.30;;;;;;;22.17;29.65;99352.56;4993262;28;20042;-71
2023/05/10 08:19:12;;;;;;;3.85;1.33;;;;;;;22.59;29.12;99358.41;4992045;28;20065;-71
2023/05/10 08:21:37;;;;;;;3.17;1.20;;;;;;;22.71;29.07;99354.31;4975717;28;20049;-72
2023/05/10 08:24:03;;;;;;;2.65;1.20;;;;;;;22.56;29.36;99343.63;4993155;28;20038;-70
2023/05/10 08:26:28;;;;;;;3.80;1.30;;;;;;;22.64;29.52;99349.88;4974992;28;20042;-71
2023/05/10 08:28:54;;;;;;;3.17;1.38;;;;;;;22.65;29.27;99348.88;4975274;28;20034;-73
2023/05/10 08:31:19;;;;;;;3.72;1.10;;;;;;;22.69;29.14;99356.31;4959606;28;20047;-73
2023/05/10 08:33:45;;;;;;;6.40;1.50;;;;;;;22.71;28.94;99351.66;4991704;28;20042;-72
2023/05/10 08:36:11;;;;;;;4.88;1.23;;;;;;;22.62;29.31;99344.75;4975088;28;20054;-71
2023/05/10 08:38:37;;;;;;;4.30;1.40;;;;;;;22.82;28.85;99345.06;4975571;28;20495;-72
2023/05/10 08:41:03;;;;;;;3.47;1.58;;;;;;;22.89;29.24;99355.81;4991754;28;20374;-72
2023/05/10 08:43:29;;;;;;;5.22;1.33;;;;;;;22.90;29.23;99344.16;4975349;28;20096;-71
2023/05/10 08:45:55;;;;;;;3.90;1.30;;;;;;;22.84;29.38;99343.03;4975621;28;20044;-70
2023/05/10 08:48:21;;;;;;;5.60;1.58;;;;;;;22.68;29.64;99351.19;4975519;28;20031;-71
2023/05/10 08:50:46;;;;;;;3.75;1.52;;;;;;;22.43;29.83;99348.72;4991636;28;20050;-72
2023/05/10 08:53:12;;;;;;;2.60;1.50;;;;;;;22.27;30.14;99347.00;4959440;28;20055;-72
2023/05/10 08:55:38;;;;;;;7.45;1.60;;;;;;;;;;4991368;28;20035;-71
2023/05/10 08:58:05;;;;;;;5.53;1.48;;;;;;;21.95;30.58;99350.69;4991514;28;20042;-72
2023/05/10 09:00:30;;;;;;;4.30;1.45;;;;;;;21.70;31.17;99358.81;4975521;28;20132;-71
2023/05/10 09:02:57;;;;;;;4.18;1.60;;;;;;;21.53;31.42;99362.56;4974938;28;20113;-71
2023/05/10 09:05:23;;;;;;;4.45;1.30;;;;;;;21.37;31.78;99360.75;4959114;28;20038;-71
2023/05/10 09:07:48;;;;;;;5.20;1.40;;;;;;;21.34;31.79;99361.91;4975310;28;20046;-71
2023/05/10 09:10:14;;;;;;;5.32;1.40;;;;;;;21.31;31.74;99370.22;4993059;28;20067;-71
2023/05/10 09:12:40;;;;;;;5.38;1.35;;;;;;;21.25;31.93;99357.63;4974702;28;20050;-71
2023/05/10 09:15:06;;;;;;;2.30;1.23;;;;;;;21.13;31.91;99351.88;4975036;28;20039;-71
2023/05/10 09:17:32;;;;;;;6.72;1.52;;;;;;;21.03;31.97;99345.91;4975235;28;20108;-70
2023/05/10 09:20:02;;;;;;;4.95;1.40;;;;;;;20.89;32.29;99352.72;4975020;28;20035;-70
2023/05/10 09:22:28;;;;;;;3.58;1.40;;;;;;;20.90;32.06;99355.22;4975104;28;20038;-71
2023/05/10 09:25:06;;;;;;;2.95;1.40;;;;;;;20.92;32.42;99347.09;4975161;28;20413;-71
2023/05/10 09:27:32;;;;;;;2.58;1.20;;;;;;;20.84;32.17;99353.28;4992900;28;20031;-71
2023/05/10 09:29:58;;;;;;;2.33;1.20;;;;;;;20.85;32.18;99346.94;4990934;28;20026;-71
2023/05/10 09:32:45;;;;;;;6.35;1.50;;;;;;;20.84;31.95;99339.16;4974456;28;20054;-73
2023/05/10 09:35:15;;;;;;;9.07;1.63;;;;;;;20.95;32.00;99354.72;4976468;28;20026;-71
2023/05/10 09:37:41;;;;;;;1.98;1.20;;;;;;;20.98;31.86;99354.38;4992522;28;20575;-71
2023/05/10 09:40:08;;;;;;;2.72;1.20;;;;;;;21.01;31.70;99348.72;4978800;28;20030;-71
2023/05/10 09:42:34;;;;;;;3.42;1.50;;;;;;;21.03;31.77;99344.09;4996407;28;20031;-70
2023/05/10 09:45:09;;;;;;;5.90;1.70;;;;;;;21.10;31.56;99341.59;4978749;28;20105;-72
2023/05/10 09:47:35;;;;;;;2.30;1.35;;;;;;;21.13;31.48;99330.63;4977737;28;20042;-72
2023/05/10 09:50:04;;;;;;;2.90;1.42;;;;;;;21.13;31.77;99344.72;4962377;28;20030;-74
2023/05/10 09:52:31;;;;;;;2.97;1.25;;;;;;;21.24;31.53;99342.72;4962974;28;20062;-74
2023/05/10 09:54:57;;;;;;;4.10;1.33;;;;;;;21.37;31.45;99334.19;4978602;28;20026;-71
2023/05/10 09:57:23;;;;;;;2.65;1.38;;;;;;;21.71;30.88;99336.53;4994637;28;20048;-73
2023/05/10 09:59:49;;;;;;;4.22;1.30;;;;;;;22.05;30.45;99333.50;4978326;28;20117;-72
2023/05/10 10:02:15;;;;;;;4.25;1.27;;;;;;;22.31;29.55;99329.72;4962569;28;20046;-75
2023/05/10 10:04:41;;;;;;;5.28;1.50;;;;;;;22.27;29.67;99328.38;4977868;28;20359;-72
2023/05/10 10:07:07;;;;;;;2.30;1.10;;;;;;;22.32;29.37;99323.38;4978253;28;20409;-72
2023/05/10 10:09:33;;;;;;;3.53;1.27;;;;;;;22.54;29.35;99324.34;4978173;28;20117;-70
2023/05/10 10:11:59;;;;;;;3.17;1.13;;;;;;;22.63;29.25;99324.28;4978839;28;20077;-73
2023/05/10 10:14:25;;;;;;;5.22;1.30;;;;;;;22.58;29.07;99319.50;4969284;28;20473;-71
2023/05/10 10:16:51;;;;;;;3.17;1.20;;;;;;;22.69;29.25;99323.53;4942757;28;20043;-72
2023/05/10 10:19:20;;;;;;;3.50;1.20;;;;;;;22.59;29.38;99326.47;4942597;28;20117;-73
2023/05/10 10:21:46;;;;;;;3.63;1.40;;;;;;;22.38;29.21;99313.88;4958584;28;20062;-71
2023/05/10 10:24:12;;;;;;;2.22;1.20;;;;;;;22.32;29.35;99303.94;4958344;28;20414;-72
2023/05/10 10:26:42;;;;;;;4.40;1.50;;;;;;;22.31;28.98;99316.41;4958281;28;20039;-72
2023/05/10 10:29:43;;;;;;;4.53;1.38;;;;;;;22.39;29.02;99318.16;4974432;28;20039;-72
2023/05/10 10:32:11;;;;;;;4.78;1.40;;;;;;;22.34;28.90;99316.03;4897004;29;20048;-71
2023/05/10 10:34:36;;;;;;;3.70;1.20;;;;;;;22.38;28.60;99316.53;4881971;29;20132;-72
2023/05/10 10:37:06;;;;;;;4.85;1.20;;;;;;;22.35;28.88;99312.38;4866003;29;20808;-71
2023/05/10 10:39:31;;;;;;;4.50;1.33;;;;;;;22.38;28.59;99311.22;4881534;29;20397;-71
2023/05/10 10:41:58;;;;;;;3.85;1.10;;;;;;;22.43;28.77;99303.50;4897058;29;20124;-72
2023/05/10 10:44:35;;;;;;;6.25;1.10;;;;;;;22.48;29.02;99316.28;4880927;29;20044;-71
2023/05/10 10:47:14;;;;;;;1.93;1.03;;;;;;;22.53;28.90;99312.06;4897433;29;20136;-71
2023/05/10 10:49:39;;;;;;;2.47;1.20;;;;;;;22.64;28.76;99309.97;4896414;29;20159;-71
2023/05/10 10:52:32;;;;;;;2.53;1.20;;;;;;;22.73;28.42;99311.53;4896834;29;20074;-71
2023/05/10 10:55:10;;;;;;;2.13;1.10;;;;;;;22.82;28.33;99304.28;4881302;29;20239;-72
2023/05/10 10:57:52;;;;;;;4.10;1.30;;;;;;;22.82;28.54;99299.81;4881156;29;20044;-70
2023/05/10 11:00:31;;;;;;;3.60;1.20;;;;;;;22.82;28.48;99304.28;4896897;29;20088;-70
2023/05/10 11:03:18;;;;;;;6.97;1.38;;;;;;;22.78;28.74;99306.50;4896837;29;20052;-71
2023/05/10 11:05:47;;;;;;;1.85;1.10;;;;;;;22.83;28.42;99297.97;4897091;29;20059;-73
2023/05/10 11:08:21;;;;;;;5.30;1.23;;;;;;;22.98;28.46;99295.28;4940899;28;20129;-70
2023/05/10 11:11:09;;;;;;;2.00;1.17;;;;;;;22.93;28.31;99288.72;4973786;28;20068;-72
2023/05/10 11:13:38;;;;;;;3.20;1.08;;;;;;;22.84;28.50;99296.97;4973830;28;20186;-73
2023/05/10 11:16:21;;;;;;;1.75;0.80;;;;;;;22.85;28.50;99295.94;4973978;28;20042;-73
2023/05/10 11:18:59;;;;;;;2.95;1.30;;;;;;;22.99;28.26;99295.13;4942662;28;20038;-69
2023/05/10 11:21:25;;;;;;;2.33;1.27;;;;;;;22.89;28.47;99291.91;4974933;28;20031;-70
2023/05/10 11:23:55;;;;;;;3.22;1.20;;;;;;;22.91;28.31;99289.88;4957183;28;20038;-71
2023/05/10 11:26:25;;;;;;;1.98;1.20;;;;;;;22.90;28.41;99288.25;4958312;28;20037;-70
2023/05/10 11:28:51;;;;;;;2.90;1.13;;;;;;;22.84;28.45;99294.31;4973211;28;20085;-71
2023/05/10 11:31:17;;;;;;;6.70;1.30;;;;;;;22.86;28.34;99292.28;4957399;28;20113;-70
2023/05/10 11:33:44;;;;;;;7.10;0.95;;;;;;;22.75;28.35;99286.38;4941330;28;20049;-72
2023/05/10 11:36:25;;;;;;;2.83;1.00;;;;;;;22.73;28.39;99284.94;4973383;28;20046;-71